createdAt,value
2019-03-24T00:01:41.914Z,12.90
2019-03-24T00:04:13.995Z,10.43
2019-03-24T00:06:45.998Z,19.63
2019-03-24T00:09:18.014Z,12.10
2019-03-24T00:11:50.063Z,12.90
2019-03-24T00:14:22.017Z,9.60
2019-03-24T00:16:57.175Z,24.70
2019-03-24T00:19:29.092Z,16.33
2019-03-24T00:22:01.061Z,15.90
2019-03-24T00:24:33.076Z,12.70
2019-03-24T00:27:05.152Z,14.73
2019-03-24T00:29:37.126Z,19.17
2019-03-24T00:32:09.243Z,18.43
2019-03-24T00:34:41.295Z,19.93
2019-03-24T00:37:13.286Z,19.10
2019-03-24T00:39:45.284Z,20.37
2019-03-24T00:42:17.318Z,19.17
2019-03-24T00:44:49.317Z,18.10
2019-03-24T00:47:21.403Z,20.13
2019-03-24T00:49:53.414Z,13.77
2019-03-24T00:52:25.473Z,18.20
2019-03-24T00:54:57.383Z,14.97
2019-03-24T00:57:29.442Z,21.63
2019-03-24T01:00:01.487Z,13.23
2019-03-24T01:02:33.551Z,56.10
2019-03-24T01:05:06.136Z,15.77
2019-03-24T01:07:38.135Z,21.23
2019-03-24T01:10:10.644Z,17.40
2019-03-24T01:12:42.778Z,12.03
2019-03-24T01:15:15.024Z,16.97
2019-03-24T01:17:47.062Z,17.40
2019-03-24T01:20:19.962Z,20.80
2019-03-24T01:22:51.957Z,22.17
2019-03-24T01:25:24.195Z,19.20
2019-03-24T01:27:56.147Z,19.53
2019-03-24T01:30:28.328Z,16.07
2019-03-24T01:33:00.412Z,18.80
2019-03-24T01:35:32.435Z,27.50
2019-03-24T01:38:04.481Z,16.10
2019-03-24T01:40:36.722Z,25.60
2019-03-24T01:43:08.802Z,20.83
2019-03-24T01:45:40.828Z,18.63
2019-03-24T01:48:13.280Z,16.60
2019-03-24T01:50:45.188Z,20.53
2019-03-24T01:53:17.256Z,23.50
2019-03-24T01:55:49.298Z,21.70
2019-03-24T01:58:21.361Z,22.57
2019-03-24T02:00:54.101Z,19.10
2019-03-24T02:03:26.273Z,19.10
2019-03-24T02:05:58.367Z,18.87
2019-03-24T02:08:30.469Z,21.00
2019-03-24T02:11:02.515Z,22.30
2019-03-24T02:13:34.596Z,16.80
2019-03-24T02:16:09.599Z,23.37
2019-03-24T02:18:40.368Z,17.70
2019-03-24T02:21:12.434Z,18.10
2019-03-24T02:23:44.489Z,16.07
2019-03-24T02:26:16.521Z,21.57
2019-03-24T02:28:48.462Z,18.73
2019-03-24T02:31:20.548Z,19.43
2019-03-24T02:33:52.626Z,18.03
2019-03-24T02:36:24.684Z,23.77
2019-03-24T02:38:56.753Z,19.67
2019-03-24T02:41:28.810Z,11.20
2019-03-24T02:44:00.790Z,14.20
2019-03-24T02:46:32.947Z,19.63
2019-03-24T02:49:04.959Z,19.07
2019-03-24T02:51:36.984Z,17.50
2019-03-24T02:54:09.072Z,20.07
2019-03-24T02:56:41.151Z,18.13
2019-03-24T02:59:13.255Z,14.70
2019-03-24T03:01:45.280Z,15.60
2019-03-24T03:04:17.296Z,18.20
2019-03-24T03:06:49.382Z,17.30
2019-03-24T03:09:21.518Z,15.10
2019-03-24T03:11:53.635Z,16.13
2019-03-24T03:14:25.756Z,14.63
2019-03-24T03:16:57.735Z,15.13
2019-03-24T03:19:29.875Z,18.87
2019-03-24T03:22:01.942Z,10.40
2019-03-24T03:24:34.017Z,21.60
2019-03-24T03:27:06.278Z,14.00
2019-03-24T03:29:38.327Z,17.47
2019-03-24T03:32:10.371Z,11.07
2019-03-24T03:34:42.488Z,13.30
2019-03-24T03:37:14.548Z,17.30
2019-03-24T03:39:46.510Z,9.50
2019-03-24T03:42:18.630Z,20.50
2019-03-24T03:44:50.632Z,15.40
2019-03-24T03:47:22.696Z,19.83
2019-03-24T03:49:54.677Z,12.67
2019-03-24T03:52:26.712Z,13.90
2019-03-24T03:54:58.810Z,16.57
2019-03-24T03:57:30.899Z,21.40
2019-03-24T04:00:02.957Z,18.00
2019-03-24T04:02:35.089Z,21.67
2019-03-24T04:05:08.026Z,13.23
2019-03-24T04:07:40.099Z,16.60
2019-03-24T04:10:12.459Z,20.40
2019-03-24T04:12:44.511Z,9.53
2019-03-24T04:15:16.555Z,12.23
2019-03-24T04:17:48.600Z,13.07
2019-03-24T04:20:20.648Z,13.00
2019-03-24T04:22:52.734Z,17.17
2019-03-24T04:25:24.770Z,10.60
2019-03-24T04:27:56.838Z,10.83
2019-03-24T04:30:28.889Z,8.17
2019-03-24T04:33:00.863Z,11.27
2019-03-24T04:35:32.878Z,14.30
2019-03-24T04:38:04.966Z,21.20
2019-03-24T04:40:36.998Z,20.80
2019-03-24T04:43:08.986Z,10.37
2019-03-24T04:45:41.099Z,16.00
2019-03-24T04:48:13.154Z,18.40
2019-03-24T04:50:45.160Z,17.43
2019-03-24T04:53:17.207Z,16.80
2019-03-24T04:55:49.264Z,15.33
2019-03-24T04:58:21.301Z,11.00
2019-03-24T05:00:53.292Z,19.77
2019-03-24T05:03:25.395Z,15.50
2019-03-24T05:05:57.889Z,13.63
2019-03-24T05:08:31.281Z,15.87
2019-03-24T05:11:03.304Z,23.67
2019-03-24T05:13:35.412Z,9.77
2019-03-24T05:16:07.444Z,17.10
2019-03-24T05:18:39.612Z,11.50
2019-03-24T05:21:11.606Z,15.83
2019-03-24T05:23:45.953Z,15.53
2019-03-24T05:26:17.379Z,10.80
2019-03-24T05:28:49.453Z,13.53
2019-03-24T05:31:21.475Z,12.20
2019-03-24T05:33:53.511Z,22.57
2019-03-24T05:36:25.520Z,13.90
2019-03-24T05:38:57.716Z,11.23
2019-03-24T05:41:29.759Z,24.23
2019-03-24T05:44:01.803Z,18.27
2019-03-24T05:46:33.883Z,13.80
2019-03-24T05:49:05.867Z,10.20
2019-03-24T05:51:37.883Z,15.77
2019-03-24T05:54:09.816Z,14.30
2019-03-24T05:56:41.909Z,17.40
2019-03-24T05:59:13.895Z,18.27
2019-03-24T06:01:46.016Z,11.07
2019-03-24T06:04:18.087Z,12.87
2019-03-24T06:06:50.144Z,12.00
2019-03-24T06:09:22.209Z,21.93
2019-03-24T06:11:54.299Z,25.93
2019-03-24T06:14:26.350Z,7.90
2019-03-24T06:16:58.377Z,15.40
2019-03-24T06:19:30.864Z,12.37
2019-03-24T06:22:02.899Z,20.93
2019-03-24T06:24:34.870Z,18.17
2019-03-24T06:27:06.923Z,18.60
2019-03-24T06:29:38.922Z,17.37
2019-03-24T06:32:10.873Z,19.60
2019-03-24T06:34:42.962Z,18.60
2019-03-24T06:37:14.981Z,14.90
2019-03-24T06:39:47.046Z,21.00
2019-03-24T06:42:19.092Z,28.37
2019-03-24T06:44:51.049Z,24.97
2019-03-24T06:47:23.141Z,20.47
2019-03-24T06:49:55.206Z,10.57
2019-03-24T06:52:27.302Z,14.40
2019-03-24T06:54:59.354Z,22.87
2019-03-24T06:57:32.438Z,20.33
2019-03-24T07:00:04.536Z,26.00
2019-03-24T07:02:36.639Z,15.80
2019-03-24T07:05:12.196Z,20.57
2019-03-24T07:07:44.354Z,15.70
2019-03-24T07:10:16.503Z,9.07
2019-03-24T07:12:48.618Z,18.63
2019-03-24T07:15:20.682Z,18.00
2019-03-24T07:17:52.762Z,12.73
2019-03-24T07:20:24.848Z,26.03
2019-03-24T07:22:56.914Z,14.57
2019-03-24T07:25:28.948Z,14.93
2019-03-24T07:28:01.031Z,16.40
2019-03-24T07:30:33.206Z,18.60
2019-03-24T07:33:15.255Z,20.37
2019-03-24T07:35:47.393Z,18.97
2019-03-24T07:38:19.511Z,19.20
2019-03-24T07:40:51.586Z,11.47
2019-03-24T07:43:23.627Z,15.73
2019-03-24T07:45:55.647Z,10.07
2019-03-24T07:48:27.590Z,13.60
2019-03-24T07:50:59.552Z,14.80
2019-03-24T07:53:31.754Z,14.03
2019-03-24T07:56:04.070Z,16.70
2019-03-24T07:58:36.073Z,19.30
2019-03-24T08:01:08.187Z,13.00
2019-03-24T08:03:40.264Z,17.73
2019-03-24T08:06:12.347Z,12.03
2019-03-24T08:08:44.679Z,9.80
2019-03-24T08:11:16.870Z,12.33
2019-03-24T08:13:53.817Z,18.83
2019-03-24T08:16:22.722Z,15.53
2019-03-24T08:18:54.777Z,11.53
2019-03-24T08:21:26.764Z,16.23
2019-03-24T08:23:58.785Z,13.30
2019-03-24T08:26:30.835Z,13.57
2019-03-24T08:29:02.844Z,17.17
2019-03-24T08:31:34.952Z,13.43
2019-03-24T08:34:07.181Z,18.73
2019-03-24T08:36:39.168Z,11.63
2019-03-24T08:39:11.252Z,22.90
2019-03-24T08:41:43.455Z,18.33
2019-03-24T08:44:15.571Z,9.80
2019-03-24T08:46:47.691Z,15.20
2019-03-24T08:49:19.710Z,14.87
2019-03-24T08:51:51.849Z,15.27
2019-03-24T08:54:23.857Z,15.43
2019-03-24T08:56:56.008Z,12.83
2019-03-24T08:59:28.057Z,13.30
2019-03-24T09:02:00.149Z,11.83
2019-03-24T09:04:32.286Z,14.40
2019-03-24T09:07:04.350Z,19.43
2019-03-24T09:09:36.455Z,12.93
2019-03-24T09:12:08.536Z,14.67
2019-03-24T09:14:40.648Z,20.97
2019-03-24T09:17:12.718Z,20.73
2019-03-24T09:19:44.839Z,16.40
2019-03-24T09:22:16.910Z,15.30
2019-03-24T09:24:49.016Z,17.30
2019-03-24T09:27:21.075Z,13.70
2019-03-24T09:29:53.225Z,22.47
2019-03-24T09:32:25.391Z,16.33
2019-03-24T09:34:57.505Z,22.27
2019-03-24T09:37:29.557Z,16.13
2019-03-24T09:40:01.609Z,21.80
2019-03-24T09:42:33.669Z,23.93
2019-03-24T09:45:06.069Z,23.00
2019-03-24T09:47:38.172Z,17.50
2019-03-24T09:50:10.470Z,15.93
2019-03-24T09:52:42.507Z,19.50
2019-03-24T09:55:14.618Z,20.57
2019-03-24T09:57:48.853Z,25.17
2019-03-24T10:00:20.631Z,14.43
2019-03-24T10:02:52.761Z,19.43
2019-03-24T10:05:24.801Z,13.67
2019-03-24T10:07:57.030Z,12.03
2019-03-24T10:10:29.097Z,12.70
2019-03-24T10:13:01.285Z,13.03
2019-03-24T10:15:33.343Z,13.87
2019-03-24T10:18:08.557Z,13.50
2019-03-24T10:20:40.591Z,16.47
2019-03-24T10:23:12.670Z,12.13
2019-03-24T10:25:45.744Z,16.03
2019-03-24T10:28:17.803Z,14.87
2019-03-24T10:30:50.307Z,14.53
2019-03-24T10:33:22.406Z,10.47
2019-03-24T10:35:59.713Z,7.87
2019-03-24T10:38:31.834Z,13.30
2019-03-24T10:41:04.051Z,13.67
2019-03-24T10:43:36.113Z,16.30
2019-03-24T10:46:08.576Z,16.90
2019-03-24T10:48:40.819Z,12.43
2019-03-24T10:51:13.029Z,16.10
2019-03-24T10:53:45.304Z,12.57
2019-03-24T10:56:17.520Z,6.13
2019-03-24T10:58:49.617Z,8.93
2019-03-24T11:01:21.786Z,9.43
2019-03-24T11:03:53.874Z,19.13
2019-03-24T11:06:26.094Z,8.00
2019-03-24T11:08:58.216Z,10.33
2019-03-24T11:11:30.742Z,13.40
2019-03-24T11:14:02.883Z,8.60
2019-03-24T11:16:34.964Z,7.97
2019-03-24T11:19:07.435Z,6.53
2019-03-24T11:21:39.700Z,9.60
2019-03-24T11:24:11.868Z,6.33
2019-03-24T11:26:44.096Z,8.37
2019-03-24T11:29:17.150Z,7.03
2019-03-24T11:31:49.446Z,13.63
2019-03-24T11:34:21.769Z,7.37
2019-03-24T11:36:54.963Z,8.30
2019-03-24T11:39:27.236Z,9.33
2019-03-24T11:41:59.994Z,8.60
2019-03-24T11:44:34.720Z,10.50
2019-03-24T11:47:06.727Z,12.10
2019-03-24T11:49:45.916Z,7.17
2019-03-24T11:52:13.346Z,5.60
2019-03-24T11:54:45.582Z,7.80
2019-03-24T11:57:18.147Z,5.40
2019-03-24T11:59:51.000Z,11.00
2019-03-24T12:02:23.417Z,9.67
2019-03-24T12:04:55.578Z,8.43
2019-03-24T12:07:28.462Z,5.50
2019-03-24T12:10:01.166Z,3.37
2019-03-24T12:12:33.581Z,3.50
2019-03-24T12:15:06.601Z,4.87
2019-03-24T12:17:39.388Z,3.70
2019-03-24T12:20:12.082Z,4.37
2019-03-24T12:22:47.023Z,6.33
2019-03-24T12:25:23.297Z,9.47
2019-03-24T12:27:56.016Z,3.77
2019-03-24T12:30:36.613Z,4.93
2019-03-24T12:33:09.307Z,3.60
2019-03-24T12:35:45.443Z,4.60
2019-03-24T12:38:20.753Z,4.70
2019-03-24T12:40:57.510Z,2.83
2019-03-24T12:43:30.409Z,6.00
2019-03-24T12:46:05.519Z,2.30
2019-03-24T12:48:39.878Z,3.20
2019-03-24T12:51:23.596Z,4.00
2019-03-24T12:53:59.170Z,5.17
2019-03-24T12:56:34.233Z,3.37
2019-03-24T12:59:09.927Z,1.97
2019-03-24T13:01:42.180Z,4.83
2019-03-24T13:04:14.622Z,5.70
2019-03-24T13:06:58.538Z,6.23
2019-03-24T13:09:33.554Z,4.40
2019-03-24T13:12:06.732Z,3.53
2019-03-24T13:14:43.267Z,4.40
2019-03-24T13:17:17.113Z,6.50
2019-03-24T13:19:52.925Z,7.20
2019-03-24T13:22:25.170Z,7.40
2019-03-24T13:25:00.084Z,10.80
2019-03-24T13:27:32.438Z,6.73
2019-03-24T13:30:07.713Z,8.43
2019-03-24T13:32:42.150Z,8.30
2019-03-24T13:35:24.346Z,7.13
2019-03-24T13:38:03.278Z,6.73
2019-03-24T13:43:55.399Z,7.63
2019-03-24T13:46:29.012Z,11.27
2019-03-24T13:49:02.055Z,8.20
2019-03-24T13:51:35.134Z,4.53
2019-03-24T13:54:07.978Z,8.03
2019-03-24T13:56:40.457Z,7.70
2019-03-24T13:59:12.870Z,12.10
2019-03-24T14:01:45.339Z,10.27
2019-03-24T14:04:17.966Z,8.93
2019-03-24T14:06:53.875Z,3.43
2019-03-24T14:09:26.252Z,6.50
2019-03-24T14:11:58.767Z,11.73
2019-03-24T14:14:31.401Z,10.27
2019-03-24T14:17:03.716Z,6.03
2019-03-24T14:19:35.871Z,9.97
2019-03-24T14:22:10.821Z,6.30
2019-03-24T14:24:43.641Z,7.07
2019-03-24T14:27:16.634Z,6.70
2019-03-24T14:29:49.196Z,11.47
2019-03-24T14:32:23.531Z,11.50
2019-03-24T14:34:56.062Z,9.00
2019-03-24T14:37:37.344Z,5.87
2019-03-24T14:40:10.247Z,7.80
2019-03-24T14:42:47.857Z,9.13
2019-03-24T14:45:31.435Z,7.33
2019-03-24T14:48:04.223Z,6.17
2019-03-24T14:50:37.082Z,4.33
2019-03-24T14:53:10.939Z,5.33
2019-03-24T14:55:44.318Z,5.80
2019-03-24T14:58:18.718Z,6.33
2019-03-24T15:00:51.439Z,5.33
2019-03-24T15:03:24.025Z,4.90
2019-03-24T15:05:56.603Z,12.07
2019-03-24T15:08:29.695Z,6.27
2019-03-24T15:11:02.529Z,6.43
2019-03-24T15:13:35.416Z,7.30
2019-03-24T15:16:09.696Z,5.37
2019-03-24T15:18:49.218Z,8.43
2019-03-24T15:21:26.327Z,5.87
2019-03-24T15:23:58.501Z,10.70
2019-03-24T15:26:30.933Z,7.17
2019-03-24T15:29:03.115Z,4.27
2019-03-24T15:31:35.733Z,4.40
2019-03-24T15:34:07.893Z,7.47
2019-03-24T15:36:40.167Z,8.77
2019-03-24T15:39:13.467Z,6.43
2019-03-24T15:41:45.701Z,6.40
2019-03-24T15:44:17.866Z,7.30
2019-03-24T15:46:50.148Z,6.23
2019-03-24T15:49:22.398Z,8.33
2019-03-24T15:51:54.730Z,8.47
2019-03-24T15:54:27.345Z,3.57
2019-03-24T15:56:59.585Z,8.83
2019-03-24T15:59:31.880Z,5.23
2019-03-24T16:02:04.277Z,6.87
2019-03-24T16:04:36.725Z,7.67
2019-03-24T16:07:08.815Z,7.83
2019-03-24T16:09:41.009Z,9.60
2019-03-24T16:12:13.208Z,6.10
2019-03-24T16:14:45.607Z,4.67
2019-03-24T16:17:17.784Z,5.70
2019-03-24T16:19:50.132Z,6.07
2019-03-24T16:22:22.303Z,4.87
2019-03-24T16:24:54.777Z,11.77
2019-03-24T16:27:26.979Z,8.73
2019-03-24T16:29:59.261Z,4.17
2019-03-24T16:32:31.539Z,9.37
2019-03-24T16:35:03.710Z,4.10
2019-03-24T16:37:36.115Z,3.60
2019-03-24T16:40:08.564Z,2.13
2019-03-24T16:42:41.138Z,4.47
2019-03-24T16:45:15.510Z,6.60
2019-03-24T16:47:47.552Z,4.00
2019-03-24T16:50:22.418Z,6.53
2019-03-24T16:52:54.867Z,4.30
2019-03-24T16:55:31.248Z,4.80
2019-03-24T16:58:05.883Z,3.57
2019-03-24T17:00:38.710Z,4.43
2019-03-24T17:03:11.686Z,5.23
2019-03-24T17:05:44.958Z,4.67
2019-03-24T17:08:18.392Z,8.20
2019-03-24T17:11:05.091Z,6.77
2019-03-24T17:13:27.777Z,8.33
2019-03-24T17:16:02.473Z,6.67
2019-03-24T17:18:36.109Z,10.97
2019-03-24T17:21:08.667Z,8.37
2019-03-24T17:23:43.707Z,10.53
2019-03-24T17:26:18.295Z,2.50
2019-03-24T17:28:50.592Z,11.30
2019-03-24T17:31:23.060Z,6.90
2019-03-24T17:33:57.505Z,3.70
2019-03-24T17:36:32.037Z,4.90
2019-03-24T17:39:07.415Z,7.67
2019-03-24T17:41:43.207Z,3.93
2019-03-24T17:44:20.090Z,6.00
2019-03-24T17:46:53.771Z,9.83
2019-03-24T17:49:34.936Z,5.17
2019-03-24T17:52:11.111Z,12.30
2019-03-24T17:54:44.296Z,5.63
2019-03-24T17:57:19.663Z,6.70
2019-03-24T18:00:02.827Z,9.73
2019-03-24T18:02:36.800Z,12.03
2019-03-24T18:05:18.139Z,9.40
2019-03-24T18:07:56.619Z,10.20
2019-03-24T18:10:31.060Z,8.23
2019-03-24T18:13:05.902Z,5.60
2019-03-24T18:15:42.250Z,3.60
2019-03-24T18:18:14.511Z,5.87
2019-03-24T18:20:48.532Z,7.17
2019-03-24T18:23:21.954Z,6.47
2019-03-24T18:25:54.210Z,5.60
2019-03-24T18:28:29.448Z,11.40
2019-03-24T18:31:01.786Z,26.77
2019-03-24T18:33:40.984Z,15.90
2019-03-24T18:36:13.118Z,16.73
2019-03-24T18:38:47.976Z,13.90
2019-03-24T18:41:20.115Z,14.20
2019-03-24T18:43:52.202Z,11.90
2019-03-24T18:46:24.325Z,12.93
2019-03-24T18:48:56.424Z,8.17
2019-03-24T18:51:28.743Z,14.20
2019-03-24T18:54:00.866Z,7.10
2019-03-24T18:56:32.998Z,12.93
2019-03-24T18:59:06.547Z,7.30
2019-03-24T19:01:38.667Z,9.03
2019-03-24T19:04:14.483Z,7.03
2019-03-24T19:06:46.601Z,8.80
2019-03-24T19:09:20.512Z,8.20
2019-03-24T19:11:52.631Z,3.70
2019-03-24T19:14:25.078Z,4.50
2019-03-24T19:16:57.215Z,7.33
2019-03-24T19:19:29.451Z,6.07
2019-03-24T19:22:04.263Z,6.50
2019-03-24T19:24:35.564Z,6.30
2019-03-24T19:27:07.739Z,10.90
2019-03-24T19:29:42.605Z,7.63
2019-03-24T19:32:15.385Z,5.10
2019-03-24T19:34:47.884Z,4.60
2019-03-24T19:37:20.405Z,4.97
2019-03-24T19:39:55.695Z,4.53
2019-03-24T19:42:27.940Z,5.27
2019-03-24T19:45:00.314Z,5.10
2019-03-24T19:47:33.684Z,4.87
2019-03-24T19:50:07.243Z,5.13
2019-03-24T19:52:44.578Z,6.17
2019-03-24T19:55:16.097Z,14.37
2019-03-24T19:57:48.231Z,7.73
2019-03-24T20:00:20.323Z,6.47
2019-03-24T20:02:52.665Z,5.77
2019-03-24T20:05:26.864Z,6.07
2019-03-24T20:07:59.194Z,9.77
2019-03-24T20:10:31.504Z,13.23
2019-03-24T20:13:03.655Z,6.90
2019-03-24T20:15:35.908Z,9.83
2019-03-24T20:18:08.419Z,15.03
2019-03-24T20:20:40.776Z,10.13
2019-03-24T20:23:21.550Z,8.87
2019-03-24T20:25:59.784Z,7.37
2019-03-24T20:28:32.170Z,10.20
2019-03-24T20:31:04.489Z,11.47
2019-03-24T20:33:39.436Z,10.37
2019-03-24T20:36:15.828Z,4.33
2019-03-24T20:38:57.332Z,7.83
2019-03-24T20:41:34.754Z,14.03
2019-03-24T20:44:07.067Z,10.73
2019-03-24T20:46:57.964Z,11.27
2019-03-24T20:49:34.318Z,11.33
2019-03-24T20:52:06.592Z,9.00
2019-03-24T20:54:40.178Z,12.87
2019-03-24T20:57:12.381Z,12.03
2019-03-24T20:59:44.441Z,8.33
2019-03-24T21:02:16.625Z,13.03
2019-03-24T21:04:48.890Z,12.73
2019-03-24T21:07:25.634Z,4.17
2019-03-24T21:10:01.131Z,10.80
2019-03-24T21:12:46.440Z,8.27
2019-03-24T21:15:18.626Z,15.43
2019-03-24T21:17:51.110Z,8.10
2019-03-24T21:20:23.353Z,11.83
2019-03-24T21:22:55.806Z,7.43
2019-03-24T21:25:28.725Z,10.40
2019-03-24T21:28:18.204Z,7.13
2019-03-24T21:30:50.670Z,9.77
2019-03-24T21:33:22.862Z,12.37
2019-03-24T21:35:56.869Z,10.10
2019-03-24T21:38:28.980Z,4.10
2019-03-24T21:41:01.291Z,8.30
2019-03-24T21:43:33.470Z,5.90
2019-03-24T21:46:05.657Z,12.87
2019-03-24T21:48:37.823Z,10.13
2019-03-24T21:51:09.979Z,7.67
2019-03-24T21:53:42.107Z,12.90
2019-03-24T21:56:14.485Z,10.40
2019-03-24T21:58:46.790Z,10.53
2019-03-24T22:01:22.240Z,4.73
2019-03-24T22:03:54.239Z,6.53
2019-03-24T22:06:26.278Z,6.67
2019-03-24T22:08:58.423Z,7.50
2019-03-24T22:11:30.484Z,11.40
2019-03-24T22:14:02.720Z,11.00
2019-03-24T22:16:34.791Z,8.73
2019-03-24T22:19:06.934Z,5.87
2019-03-24T22:21:39.016Z,12.83
2019-03-24T22:24:11.199Z,7.77
2019-03-24T22:26:47.536Z,10.27
2019-03-24T22:29:19.626Z,8.50
2019-03-24T22:31:51.705Z,6.43
2019-03-24T22:34:23.689Z,7.47
2019-03-24T22:36:55.722Z,3.77
2019-03-24T22:39:27.821Z,7.07
2019-03-24T22:41:59.970Z,9.00
2019-03-24T22:44:32.102Z,7.60
2019-03-24T22:47:04.187Z,9.20
2019-03-24T22:49:36.330Z,7.97
2019-03-24T22:52:08.562Z,6.97
2019-03-24T22:54:40.584Z,7.13
2019-03-24T22:57:13.087Z,11.40
2019-03-24T22:59:45.302Z,10.27
2019-03-24T23:02:26.761Z,8.53
2019-03-24T23:04:58.708Z,10.77
2019-03-24T23:07:30.719Z,15.63
2019-03-24T23:10:02.762Z,10.53
2019-03-24T23:12:34.926Z,6.30
2019-03-24T23:15:07.864Z,11.93
2019-03-24T23:17:40.067Z,7.93
2019-03-24T23:20:12.146Z,7.77
2019-03-24T23:22:44.153Z,7.53
2019-03-24T23:25:16.298Z,5.70
2019-03-24T23:27:48.408Z,5.90
2019-03-24T23:30:20.749Z,9.50
2019-03-24T23:32:52.867Z,13.00
2019-03-24T23:35:25.034Z,11.67
2019-03-24T23:37:57.528Z,3.97
2019-03-24T23:40:30.527Z,8.83
2019-03-24T23:43:02.609Z,9.20
2019-03-24T23:45:34.751Z,7.63
2019-03-24T23:48:08.094Z,8.73
2019-03-24T23:50:40.188Z,6.57
2019-03-24T23:53:12.251Z,7.20
2019-03-24T23:55:44.475Z,9.57
2019-03-24T23:58:16.582Z,6.83
